createdAt,value
2023-03-20T00:01:31.279Z,3.55
2023-03-20T00:03:59.725Z,4.00
2023-03-20T00:06:29.893Z,3.50
2023-03-20T00:08:58.770Z,4.60
2023-03-20T00:11:37.527Z,3.90
2023-03-20T00:14:10.098Z,4.82
2023-03-20T00:16:40.305Z,4.43
2023-03-20T00:19:15.642Z,4.85
2023-03-20T00:21:46.002Z,4.63
2023-03-20T00:24:14.866Z,5.43
2023-03-20T00:26:44.314Z,5.45
2023-03-20T00:29:21.714Z,4.75
2023-03-20T00:31:50.372Z,5.20
2023-03-20T00:34:21.205Z,5.28
2023-03-20T00:36:49.733Z,4.55
2023-03-20T00:39:18.828Z,4.75
2023-03-20T00:41:50.892Z,4.60
2023-03-20T00:44:25.843Z,5.47
2023-03-20T00:46:59.209Z,4.97
2023-03-20T00:49:29.788Z,4.90
2023-03-20T00:51:59.391Z,5.55
2023-03-20T00:54:27.995Z,5.82
2023-03-20T00:57:00.633Z,5.90
2023-03-20T00:59:33.143Z,6.07
2023-03-20T01:02:03.037Z,6.70
2023-03-20T01:04:36.839Z,7.07
2023-03-20T01:07:07.184Z,7.03
2023-03-20T01:09:36.031Z,6.40
2023-03-20T01:12:08.491Z,5.63
2023-03-20T01:14:38.170Z,6.05
2023-03-20T01:17:06.907Z,7.40
2023-03-20T01:19:36.549Z,7.60
2023-03-20T01:22:05.099Z,7.00
2023-03-20T01:24:33.770Z,8.00
2023-03-20T01:27:04.102Z,8.40
2023-03-20T01:29:33.229Z,8.27
2023-03-20T01:32:03.845Z,8.75
2023-03-20T01:34:32.483Z,8.68
2023-03-20T01:37:00.958Z,8.93
2023-03-20T01:39:34.832Z,8.23
2023-03-20T01:42:05.897Z,9.10
2023-03-20T01:44:36.231Z,8.15
2023-03-20T01:47:17.541Z,10.05
2023-03-20T01:50:26.697Z,9.48
2023-03-20T01:53:08.174Z,9.43
2023-03-20T01:55:41.095Z,9.20
2023-03-20T01:58:14.293Z,10.38
2023-03-20T02:00:43.324Z,11.63
2023-03-20T02:03:14.123Z,11.27
2023-03-20T02:05:43.757Z,11.00
2023-03-20T02:08:23.998Z,12.18
2023-03-20T02:10:53.072Z,12.30
2023-03-20T02:13:22.259Z,13.20
2023-03-20T02:15:59.332Z,11.48
2023-03-20T02:18:29.771Z,13.50
2023-03-20T02:21:25.958Z,14.63
2023-03-20T02:24:21.690Z,12.43
2023-03-20T02:26:59.172Z,15.10
2023-03-20T02:30:07.611Z,14.20
2023-03-20T02:33:20.336Z,14.52
2023-03-20T02:36:38.246Z,15.48
2023-03-20T02:39:25.615Z,17.02
2023-03-20T02:42:01.846Z,18.27
2023-03-20T02:44:38.899Z,18.45
2023-03-20T02:47:12.604Z,19.20
2023-03-20T02:49:55.930Z,21.85
2023-03-20T02:52:33.510Z,22.55
2023-03-20T02:55:16.141Z,22.73
2023-03-20T02:57:53.073Z,22.65
2023-03-20T03:00:29.506Z,23.42
2023-03-20T03:03:07.261Z,23.83
2023-03-20T03:05:39.850Z,24.83
2023-03-20T03:08:13.789Z,25.90
2023-03-20T03:10:46.579Z,27.98
2023-03-20T03:13:18.338Z,25.45
2023-03-20T03:15:50.496Z,24.70
2023-03-20T03:18:22.823Z,22.85
2023-03-20T03:20:56.740Z,24.15
2023-03-20T03:23:30.913Z,24.08
2023-03-20T03:26:03.572Z,22.58
2023-03-20T03:28:37.638Z,22.83
2023-03-20T03:31:08.396Z,22.85
2023-03-20T03:33:40.545Z,22.00
2023-03-20T03:36:19.279Z,22.63
2023-03-20T03:38:55.555Z,20.63
2023-03-20T03:41:32.790Z,20.60
2023-03-20T03:44:12.053Z,19.83
2023-03-20T03:46:46.936Z,21.17
2023-03-20T03:49:22.276Z,20.67
2023-03-20T03:51:55.816Z,20.63
2023-03-20T03:54:27.139Z,19.63
2023-03-20T03:56:58.949Z,18.52
2023-03-20T03:59:32.951Z,19.55
2023-03-20T04:02:03.735Z,20.00
2023-03-20T04:04:33.892Z,18.60
2023-03-20T04:07:02.265Z,19.23
2023-03-20T04:09:30.638Z,18.15
2023-03-20T04:12:00.635Z,18.08
2023-03-20T04:14:29.740Z,18.13
2023-03-20T04:16:58.648Z,19.48
2023-03-20T04:19:27.013Z,19.35
2023-03-20T04:21:56.003Z,19.50
2023-03-20T04:24:24.402Z,20.55
2023-03-20T04:26:52.859Z,18.90
2023-03-20T04:29:22.902Z,19.08
2023-03-20T04:31:51.503Z,20.40
2023-03-20T04:34:19.850Z,20.20
2023-03-20T04:36:49.698Z,19.02
2023-03-20T04:39:18.088Z,18.65
2023-03-20T04:41:47.197Z,20.13
2023-03-20T04:44:15.785Z,19.40
2023-03-20T04:46:45.433Z,19.48
2023-03-20T04:49:13.997Z,19.63
2023-03-20T04:51:42.467Z,18.75
2023-03-20T04:54:10.935Z,20.02
2023-03-20T04:56:39.470Z,20.42
2023-03-20T04:59:08.168Z,19.88
2023-03-20T05:01:36.934Z,20.02
2023-03-20T05:04:07.269Z,21.25
2023-03-20T05:06:35.973Z,21.20
2023-03-20T05:09:04.266Z,21.48
2023-03-20T05:11:33.494Z,22.05
2023-03-20T05:14:01.889Z,22.10
2023-03-20T05:16:30.246Z,22.27
2023-03-20T05:18:58.892Z,21.23
2023-03-20T05:21:28.466Z,21.73
2023-03-20T05:23:56.842Z,21.27
2023-03-20T05:26:25.032Z,24.33
2023-03-20T05:28:53.579Z,21.77
2023-03-20T05:31:49.303Z,21.27
2023-03-20T05:34:18.183Z,23.08
2023-03-20T05:36:48.205Z,22.90
2023-03-20T05:39:16.617Z,22.60
2023-03-20T05:41:45.967Z,23.58
2023-03-20T05:44:14.562Z,21.67
2023-03-20T05:46:42.754Z,22.90
2023-03-20T05:49:11.176Z,23.13
2023-03-20T05:51:40.111Z,23.17
2023-03-20T05:54:12.874Z,22.52
2023-03-20T05:56:41.203Z,22.92
2023-03-20T05:59:09.985Z,22.58
2023-03-20T06:01:38.248Z,24.67
2023-03-20T06:04:08.494Z,21.40
2023-03-20T06:06:38.216Z,22.25
2023-03-20T06:09:07.284Z,22.63
2023-03-20T06:11:37.759Z,22.10
2023-03-20T06:14:06.337Z,22.58
2023-03-20T06:16:35.779Z,22.52
2023-03-20T06:19:03.988Z,22.27
2023-03-20T06:21:32.381Z,22.70
2023-03-20T06:24:01.315Z,24.08
2023-03-20T06:26:29.460Z,23.40
2023-03-20T06:28:59.735Z,22.95
2023-03-20T06:31:28.092Z,22.40
2023-03-20T06:33:56.619Z,23.80
2023-03-20T06:36:26.479Z,23.92
2023-03-20T06:38:56.618Z,24.38
2023-03-20T06:41:34.124Z,23.73
2023-03-20T06:44:05.257Z,23.48
2023-03-20T06:46:33.832Z,24.20
2023-03-20T06:49:03.291Z,23.75
2023-03-20T06:51:31.651Z,24.27
2023-03-20T06:54:01.023Z,24.42
2023-03-20T06:56:30.302Z,22.17
2023-03-20T06:59:00.938Z,21.30
2023-03-20T07:01:30.968Z,20.55
2023-03-20T07:03:59.375Z,19.70
2023-03-20T07:06:28.262Z,21.83
2023-03-20T07:08:57.157Z,21.38
2023-03-20T07:11:26.509Z,20.35
2023-03-20T07:13:55.026Z,21.40
2023-03-20T07:16:23.862Z,20.70
2023-03-20T07:18:53.814Z,21.10
2023-03-20T07:21:24.178Z,21.00
2023-03-20T07:23:52.627Z,19.10
2023-03-20T07:26:21.699Z,22.13
2023-03-20T07:28:50.160Z,21.63
2023-03-20T07:31:22.002Z,22.20
2023-03-20T07:33:50.952Z,23.25
2023-03-20T07:36:21.657Z,24.50
2023-03-20T07:38:50.889Z,24.60
2023-03-20T07:41:19.842Z,24.23
2023-03-20T07:43:48.100Z,27.45
2023-03-20T07:46:17.478Z,27.63
2023-03-20T07:48:46.829Z,30.90
2023-03-20T07:51:15.112Z,30.92
2023-03-20T07:53:44.659Z,31.60
2023-03-20T07:56:13.090Z,29.10
2023-03-20T07:58:41.928Z,31.08
2023-03-20T08:01:10.631Z,29.90
2023-03-20T08:03:39.973Z,31.10
2023-03-20T08:06:11.252Z,33.10
2023-03-20T08:08:42.178Z,32.33
2023-03-20T08:11:13.441Z,30.77
2023-03-20T08:13:41.906Z,32.90
2023-03-20T08:16:11.273Z,33.22
2023-03-20T08:18:40.163Z,34.17
2023-03-20T08:21:08.931Z,34.67
2023-03-20T08:23:38.048Z,34.08
2023-03-20T08:26:07.237Z,33.72
2023-03-20T08:28:47.040Z,34.40
2023-03-20T08:31:17.791Z,32.42
2023-03-20T08:33:47.447Z,34.65
2023-03-20T08:36:20.377Z,35.00
2023-03-20T08:38:49.697Z,34.40
2023-03-20T08:41:19.280Z,34.85
2023-03-20T08:43:49.693Z,33.03
2023-03-20T08:46:17.986Z,35.25
2023-03-20T08:48:47.917Z,36.05
2023-03-20T08:51:16.464Z,35.95
2023-03-20T08:53:44.947Z,34.88
2023-03-20T08:56:13.231Z,35.58
2023-03-20T08:58:41.518Z,35.15
2023-03-20T09:01:12.582Z,33.28
2023-03-20T09:03:41.266Z,33.30
2023-03-20T09:06:11.165Z,34.20
2023-03-20T09:08:41.906Z,32.30
2023-03-20T09:11:10.794Z,33.03
2023-03-20T09:13:39.281Z,33.95
2023-03-20T09:16:08.354Z,33.40
2023-03-20T09:18:38.343Z,33.53
2023-03-20T09:21:07.169Z,34.03
2023-03-20T09:23:35.727Z,35.33
2023-03-20T09:26:04.763Z,34.17
2023-03-20T09:28:32.994Z,32.75
2023-03-20T09:31:02.138Z,34.30
2023-03-20T09:33:32.201Z,35.22
2023-03-20T09:36:01.981Z,33.97
2023-03-20T09:38:30.872Z,34.88
2023-03-20T09:41:01.452Z,32.88
2023-03-20T09:43:51.927Z,34.53
2023-03-20T09:46:32.249Z,33.55
2023-03-20T09:49:08.870Z,33.92
2023-03-20T09:51:48.842Z,37.03
2023-03-20T09:54:53.294Z,35.85
2023-03-20T09:57:25.968Z,36.40
2023-03-20T09:59:58.796Z,36.30
2023-03-20T10:02:39.482Z,35.20
2023-03-20T10:05:18.531Z,35.58
2023-03-20T10:07:50.048Z,40.42
2023-03-20T10:10:20.674Z,36.25
2023-03-20T10:13:03.818Z,36.13
2023-03-20T10:15:44.776Z,32.90
2023-03-20T10:18:22.558Z,33.58
2023-03-20T10:20:58.806Z,33.08
2023-03-20T10:23:37.398Z,31.63
2023-03-20T10:26:09.839Z,30.58
2023-03-20T10:28:43.989Z,27.95
2023-03-20T10:31:26.439Z,28.63
2023-03-20T10:34:05.682Z,24.90
2023-03-20T10:36:47.458Z,23.17
2023-03-20T10:39:24.931Z,20.20
2023-03-20T10:41:56.581Z,18.65
2023-03-20T10:44:33.026Z,17.17
2023-03-20T10:47:03.367Z,17.15
2023-03-20T10:49:39.694Z,16.65
2023-03-20T10:52:16.574Z,16.27
2023-03-20T10:54:51.214Z,15.73
2023-03-20T10:58:00.136Z,14.82
2023-03-20T11:00:30.650Z,14.27
2023-03-20T11:03:29.161Z,15.27
2023-03-20T11:06:09.658Z,14.30
2023-03-20T11:08:41.983Z,15.13
2023-03-20T11:11:12.105Z,14.10
2023-03-20T11:13:43.129Z,14.52
2023-03-20T11:16:18.938Z,14.43
2023-03-20T11:18:49.555Z,12.98
2023-03-20T11:21:23.590Z,13.25
2023-03-20T11:23:53.210Z,13.55
2023-03-20T11:26:36.485Z,12.73
2023-03-20T11:29:10.093Z,12.80
2023-03-20T11:31:52.180Z,12.77
2023-03-20T11:34:27.842Z,13.20
2023-03-20T11:37:09.637Z,13.20
2023-03-20T11:39:40.180Z,13.10
2023-03-20T11:42:25.488Z,12.63
2023-03-20T11:45:05.224Z,11.73
2023-03-20T11:47:37.040Z,12.45
2023-03-20T11:50:08.340Z,12.23
2023-03-20T11:52:39.029Z,12.15
2023-03-20T11:55:23.590Z,12.02
2023-03-20T11:57:58.244Z,12.10
2023-03-20T12:00:30.002Z,12.73
2023-03-20T12:02:58.312Z,12.10
2023-03-20T12:05:32.907Z,11.35
2023-03-20T12:08:07.364Z,12.13
2023-03-20T12:10:40.693Z,12.00
2023-03-20T12:13:18.247Z,12.05
2023-03-20T12:15:50.391Z,11.77
2023-03-20T12:18:26.384Z,12.25
2023-03-20T12:21:05.636Z,11.80
2023-03-20T12:23:38.816Z,11.55
2023-03-20T12:26:10.206Z,11.50
2023-03-20T12:28:44.388Z,11.70
2023-03-20T12:31:27.391Z,10.93
2023-03-20T12:34:01.512Z,10.80
2023-03-20T12:36:34.953Z,11.50
2023-03-20T12:39:09.120Z,11.32
2023-03-20T12:41:50.960Z,10.70
2023-03-20T12:44:31.107Z,10.95
2023-03-20T12:47:16.753Z,11.88
2023-03-20T12:49:54.399Z,9.98
2023-03-20T12:52:32.294Z,10.93
2023-03-20T12:55:18.245Z,10.80
2023-03-20T12:58:02.816Z,10.80
2023-03-20T13:00:39.023Z,10.73
2023-03-20T13:03:26.495Z,10.93
2023-03-20T13:06:58.565Z,11.68
2023-03-20T13:09:44.929Z,11.07
2023-03-20T13:12:24.671Z,10.10
2023-03-20T13:15:03.295Z,11.68
2023-03-20T13:17:37.402Z,12.25
2023-03-20T13:20:23.319Z,11.75
2023-03-20T13:23:04.438Z,11.70
2023-03-20T13:25:54.733Z,11.15
2023-03-20T13:28:30.953Z,11.50
2023-03-20T13:31:07.562Z,10.80
2023-03-20T13:33:48.760Z,10.48
2023-03-20T13:36:29.254Z,10.80
2023-03-20T13:39:04.083Z,9.55
2023-03-20T13:41:35.368Z,9.48
2023-03-20T13:44:06.695Z,10.02
2023-03-20T13:46:40.306Z,9.48
2023-03-20T13:49:17.433Z,9.40
2023-03-20T13:51:55.012Z,9.93
2023-03-20T13:54:57.258Z,8.95
2023-03-20T13:57:49.375Z,9.23
2023-03-20T14:00:29.186Z,8.95
2023-03-20T14:03:16.215Z,9.52
2023-03-20T14:05:47.558Z,9.60
2023-03-20T14:08:33.773Z,9.57
2023-03-20T14:11:16.100Z,9.85
2023-03-20T14:13:48.014Z,9.50
2023-03-20T14:16:20.121Z,10.25
2023-03-20T14:18:51.771Z,9.55
2023-03-20T14:21:25.183Z,10.63
2023-03-20T14:24:02.053Z,9.93
2023-03-20T14:26:33.041Z,9.25
2023-03-20T14:29:04.569Z,8.52
2023-03-20T14:31:38.367Z,7.95
2023-03-20T14:34:16.956Z,6.72
2023-03-20T14:36:58.629Z,7.63
2023-03-20T14:39:37.873Z,7.03
2023-03-20T14:42:22.543Z,6.75
2023-03-20T14:45:43.459Z,6.38
2023-03-20T14:48:19.748Z,6.07
2023-03-20T14:51:03.242Z,5.00
2023-03-20T14:53:34.165Z,5.20
2023-03-20T14:56:11.686Z,4.55
2023-03-20T14:58:54.708Z,4.47
2023-03-20T15:01:35.317Z,4.05
2023-03-20T15:04:09.196Z,4.10
2023-03-20T15:06:46.160Z,3.83
2023-03-20T15:09:16.917Z,3.65
2023-03-20T15:11:45.330Z,3.70
2023-03-20T15:14:21.494Z,3.85
2023-03-20T15:16:52.261Z,3.40
2023-03-20T15:19:21.464Z,3.80
2023-03-20T15:21:51.252Z,3.10
2023-03-20T15:24:24.782Z,3.00
2023-03-20T15:26:55.568Z,2.95
2023-03-20T15:29:24.557Z,2.55
2023-03-20T15:32:12.514Z,2.83
2023-03-20T15:34:44.111Z,2.78
2023-03-20T15:37:16.582Z,3.28
2023-03-20T15:39:48.770Z,2.97
2023-03-20T15:42:21.377Z,3.30
2023-03-20T15:44:51.906Z,3.60
2023-03-20T15:47:22.302Z,3.30
2023-03-20T15:49:53.692Z,3.80
2023-03-20T15:52:28.863Z,3.13
2023-03-20T15:55:00.930Z,3.40
2023-03-20T15:57:35.751Z,3.88
2023-03-20T16:00:07.401Z,3.50
2023-03-20T16:02:38.346Z,3.60
2023-03-20T16:05:13.199Z,3.60
2023-03-20T16:07:42.651Z,4.18
2023-03-20T16:10:20.648Z,4.18
2023-03-20T16:12:51.204Z,3.88
2023-03-20T16:15:25.298Z,4.13
2023-03-20T16:17:57.364Z,4.10
2023-03-20T16:20:27.032Z,4.45
2023-03-20T16:23:00.744Z,4.20
2023-03-20T16:25:30.677Z,4.53
2023-03-20T16:28:00.228Z,4.55
2023-03-20T16:30:32.992Z,4.45
2023-03-20T16:33:03.316Z,4.75
2023-03-20T16:35:41.186Z,5.63
2023-03-20T16:38:17.665Z,4.97
2023-03-20T16:40:49.762Z,5.50
2023-03-20T16:43:21.184Z,5.40
2023-03-20T16:45:54.576Z,5.57
2023-03-20T16:48:31.987Z,5.70
2023-03-20T16:51:05.296Z,5.22
2023-03-20T16:53:41.480Z,5.50
2023-03-20T16:56:17.331Z,5.10
2023-03-20T16:58:47.021Z,5.28
2023-03-20T17:01:20.131Z,6.10
2023-03-20T17:03:52.287Z,6.18
2023-03-20T17:06:39.430Z,5.47
2023-03-20T17:09:27.017Z,6.28
2023-03-20T17:12:07.295Z,6.10
2023-03-20T17:14:35.607Z,6.30
2023-03-20T17:17:03.993Z,6.65
2023-03-20T17:19:34.118Z,7.28
2023-03-20T17:22:05.557Z,6.97
2023-03-20T17:24:33.934Z,6.47
2023-03-20T17:27:03.935Z,6.28
2023-03-20T17:29:32.602Z,6.35
2023-03-20T17:32:00.876Z,5.55
2023-03-20T17:34:29.583Z,6.10
2023-03-20T17:37:00.044Z,6.10
2023-03-20T17:39:29.141Z,5.60
2023-03-20T17:41:58.028Z,5.35
2023-03-20T17:44:28.230Z,5.30
2023-03-20T17:46:59.063Z,5.65
2023-03-20T17:49:28.733Z,5.40
2023-03-20T17:51:57.708Z,5.88
2023-03-20T17:54:29.437Z,5.15
2023-03-20T17:56:57.869Z,4.97
2023-03-20T17:59:31.161Z,5.53
2023-03-20T18:02:00.244Z,5.65
2023-03-20T18:04:29.925Z,5.38
2023-03-20T18:06:58.853Z,4.38
2023-03-20T18:09:27.538Z,4.65
2023-03-20T18:11:56.727Z,4.03
2023-03-20T18:14:27.850Z,3.75
2023-03-20T18:16:56.370Z,4.38
2023-03-20T18:19:28.382Z,3.60
2023-03-20T18:21:58.668Z,3.63
2023-03-20T18:24:27.745Z,4.32
2023-03-20T18:26:57.319Z,3.47
2023-03-20T18:29:27.097Z,3.80
2023-03-20T18:31:55.532Z,3.35
2023-03-20T18:34:23.883Z,3.53
2023-03-20T18:36:52.854Z,3.15
2023-03-20T18:39:22.974Z,3.08
2023-03-20T18:41:51.987Z,3.15
2023-03-20T18:44:20.401Z,3.60
2023-03-20T18:46:51.063Z,3.22
2023-03-20T18:49:21.204Z,3.45
2023-03-20T18:51:50.618Z,3.88
2023-03-20T18:54:19.693Z,3.53
2023-03-20T18:56:49.881Z,3.17
2023-03-20T18:59:19.373Z,3.30
2023-03-20T19:01:53.073Z,3.00
2023-03-20T19:04:23.138Z,3.20
2023-03-20T19:06:51.480Z,3.85
2023-03-20T19:09:21.763Z,3.75
2023-03-20T19:11:50.364Z,3.10
2023-03-20T19:14:19.584Z,2.92
2023-03-20T19:16:48.369Z,3.15
2023-03-20T19:19:18.778Z,3.17
2023-03-20T19:21:47.030Z,3.33
2023-03-20T19:24:15.312Z,3.22
2023-03-20T19:26:43.609Z,2.85
2023-03-20T19:29:14.126Z,3.10
2023-03-20T19:31:42.419Z,3.40
2023-03-20T19:34:34.987Z,3.17
2023-03-20T19:37:01.338Z,2.90
2023-03-20T19:39:31.067Z,3.00
2023-03-20T19:42:18.481Z,3.20
2023-03-20T19:44:47.648Z,2.95
2023-03-20T19:47:15.978Z,3.40
2023-03-20T19:49:44.772Z,2.70
2023-03-20T19:52:23.777Z,3.17
2023-03-20T19:55:02.109Z,2.83
2023-03-20T19:57:31.811Z,2.85
2023-03-20T20:02:48.932Z,2.90
2023-03-20T20:05:21.933Z,3.50
2023-03-20T20:08:24.237Z,2.95
2023-03-20T20:10:43.026Z,3.35
2023-03-20T20:13:17.823Z,3.47
2023-03-20T20:15:48.088Z,3.30
2023-03-20T20:18:21.226Z,3.03
2023-03-20T20:21:59.656Z,3.08
2023-03-20T20:23:42.541Z,3.60
2023-03-20T20:26:12.327Z,4.00
2023-03-20T20:28:40.801Z,3.45
2023-03-20T20:31:08.913Z,4.38
2023-03-20T20:33:37.572Z,4.40
2023-03-20T20:36:58.940Z,3.60
2023-03-20T20:39:02.519Z,4.00
2023-03-20T20:41:31.125Z,4.20
2023-03-20T20:44:17.568Z,4.38
2023-03-20T20:46:46.866Z,4.38
2023-03-20T20:49:19.581Z,4.32
2023-03-20T20:51:48.219Z,4.38
2023-03-20T20:54:20.950Z,4.47
2023-03-20T20:56:49.426Z,4.55
2023-03-20T20:59:18.076Z,4.20
2023-03-20T21:01:46.877Z,4.18
2023-03-20T21:04:15.485Z,5.03
2023-03-20T21:07:09.863Z,5.25
2023-03-20T21:09:39.599Z,4.88
2023-03-20T21:12:22.665Z,5.00
2023-03-20T21:14:59.919Z,5.10
2023-03-20T21:17:30.684Z,5.47
2023-03-20T21:19:58.946Z,5.30
2023-03-20T21:22:27.451Z,4.65
2023-03-20T21:25:13.122Z,5.05
2023-03-20T21:27:42.751Z,5.20
2023-03-20T21:30:13.504Z,5.13
2023-03-20T21:32:41.898Z,5.25
2023-03-20T21:35:10.645Z,5.05
2023-03-20T21:40:29.805Z,5.00
2023-03-20T21:42:59.457Z,4.95
2023-03-20T21:48:56.292Z,5.03
2023-03-20T21:52:23.995Z,5.43
2023-03-20T22:00:14.155Z,5.25
2023-03-20T22:02:27.772Z,4.68
2023-03-20T22:08:38.083Z,4.53
2023-03-20T22:14:30.907Z,4.82
2023-03-20T22:17:17.644Z,4.45
2023-03-20T22:19:50.276Z,4.78
2023-03-20T22:25:27.562Z,4.45
2023-03-20T22:28:15.925Z,4.63
2023-03-20T22:31:22.569Z,4.25
2023-03-20T22:39:22.838Z,4.43
2023-03-20T22:42:40.389Z,4.90
2023-03-20T22:44:57.304Z,4.70
2023-03-20T22:47:23.111Z,5.32
2023-03-20T22:49:54.965Z,4.82
2023-03-20T22:52:32.087Z,4.68
2023-03-20T22:55:07.512Z,4.97
2023-03-20T22:57:45.579Z,4.38
2023-03-20T23:00:22.154Z,4.25
2023-03-20T23:02:54.963Z,4.60
2023-03-20T23:05:25.795Z,4.35
2023-03-20T23:07:53.997Z,4.68
2023-03-20T23:10:25.394Z,4.57
2023-03-20T23:12:53.820Z,5.07
2023-03-20T23:15:23.015Z,4.63
2023-03-20T23:17:52.971Z,4.90
2023-03-20T23:20:21.853Z,4.72
2023-03-20T23:22:50.752Z,4.65
2023-03-20T23:25:30.985Z,4.43
2023-03-20T23:28:06.840Z,5.15
2023-03-20T23:30:46.575Z,5.20
2023-03-20T23:33:19.842Z,4.53
2023-03-20T23:35:48.765Z,4.97
2023-03-20T23:38:17.914Z,4.40
2023-03-20T23:40:50.142Z,4.53
2023-03-20T23:43:18.892Z,4.30
2023-03-20T23:45:47.293Z,4.47
2023-03-20T23:48:16.906Z,4.30
2023-03-20T23:50:52.890Z,4.05
2023-03-20T23:53:21.779Z,4.60
2023-03-20T23:55:51.790Z,3.95
2023-03-20T23:58:20.972Z,4.47
